Time;durP1;ratioP1;P1;durP2;ratioP2;P2;SDS_P1;SDS_P2;PMS_P1;PMS_P2;Temp;Humidity;BMP_temperature;BMP_pressure;BME280_temperature;BME280_humidity;BME280_pressure;Samples;Min_cycle;Max_cycle;Signal;HPM_P1;HPM_P2
2023/08/22 00:00:19;;;;;;;;;;;;;;;;;;2085737;28;20345;-72
2023/08/22 00:01:39;;;;;;;;;;;;;;;;;;2097049;28;20030;-72
2023/08/22 00:03:00;;;;;;;;;;;;;;;;;;2085571;28;19920;-72
2023/08/22 00:04:21;;;;;;;;;;;;;;;;;;2088784;28;19943;-72
2023/08/22 00:05:41;;;;;;;;;;;;;;;;;;2088535;28;19909;-72
2023/08/22 00:07:02;;;;;;;;;;;;;;;;;;2090360;28;19978;-73
2023/08/22 00:08:23;;;;;;;;;;;;;;;;;;2083539;28;19972;-72
2023/08/22 00:09:44;;;;;;;;;;;;;;;;;;2066038;28;20289;-72
2023/08/22 00:11:05;;;;;;;;;;;;;;;;;;2078625;28;19917;-72
2023/08/22 00:12:25;;;;;;;;;;;;;;;;;;2081159;28;19917;-72
2023/08/22 00:13:46;;;;;;;;;;;;;;;;;;2096697;28;19919;-72
2023/08/22 00:15:09;;;;;;;;;;;;;;;;;;2085554;28;20590;-73
2023/08/22 00:16:30;;;;;;;;;;;;;;;;;;2086812;28;20206;-72
2023/08/22 00:17:51;;;;;;;;;;;;;;;;;;2087750;28;19962;-73
2023/08/22 00:19:12;;;;;;;;;;;;;;;;;;2083301;28;19913;-72
2023/08/22 00:20:32;;;;;;;;;;;;;;;;;;2082887;28;20308;-72
2023/08/22 00:21:53;;;;;;;;;;;;;;;;;;2072963;28;19922;-73
2023/08/22 00:23:14;;;;;;;;;;;;;;;;;;2078845;28;19921;-73
2023/08/22 00:24:38;;;;;;;;;;;;;;;;;;2073522;28;19952;-73
2023/08/22 00:25:59;;;;;;;;;;;;;;;;;;2086877;28;20276;-73
2023/08/22 00:27:19;;;;;;;;;;;;;;;;;;2094778;28;20287;-72
2023/08/22 00:28:40;;;;;;;;;;;;;;;;;;2094516;28;19913;-73
2023/08/22 00:30:01;;;;;;;;;;;;;;;;;;2100182;28;19916;-73
2023/08/22 00:31:22;;;;;;;;;;;;;;;;;;2095646;28;19958;-72
2023/08/22 00:32:43;;;;;;;;;;;;;;;;;;2093838;28;19916;-72
2023/08/22 00:34:04;;;;;;;;;;;;;;;;;;2094244;28;19913;-72
2023/08/22 00:35:28;;;;;;;;;;;;;;;;;;2085928;28;19920;-73
2023/08/22 00:36:49;;;;;;;;;;;;;;;;;;2080280;28;19921;-72
2023/08/22 00:38:09;;;;;;;;;;;;;;;;;;2083647;28;19909;-72
2023/08/22 00:39:30;;;;;;;;;;;;;;;;;;2084581;28;19935;-73
2023/08/22 00:40:51;;;;;;;;;;;;;;;;;;2083433;28;20233;-73
2023/08/22 00:42:12;;;;;;;;;;;;;;;;;;2084249;28;20280;-72
2023/08/22 00:43:33;;;;;;;;;;;;;;;;;;2083675;28;19916;-72
2023/08/22 00:44:54;;;;;;;;;;;;;;;;;;2084008;28;19916;-72
2023/08/22 00:46:15;;;;;;;;;;;;;;;;;;2079936;28;19921;-72
2023/08/22 00:47:36;;;;;;;;;;;;;;;;;;2084093;28;20342;-72
2023/08/22 00:48:57;;;;;;;;;;;;;;;;;;2090122;28;19966;-72
2023/08/22 00:50:18;;;;;;;;;;;;;;;;;;2097629;28;19916;-72
2023/08/22 00:51:39;;;;;;;;;;;;;;;;;;2090727;28;19912;-72
2023/08/22 00:53:00;;;;;;;;;;;;;;;;;;2091635;28;19912;-72
2023/08/22 00:54:20;;;;;;;;;;;;;;;;;;2089408;28;19913;-73
2023/08/22 00:55:41;;;;;;;;;;;;;;;;;;2086454;28;20261;-72
2023/08/22 00:57:03;;;;;;;;;;;;;;;;;;2083250;28;19979;-72
2023/08/22 00:58:23;;;;;;;;;;;;;;;;;;2092653;28;20430;-72
2023/08/22 00:59:44;;;;;;;;;;;;;;;;;;2088839;28;19913;-72
2023/08/22 01:01:05;;;;;;;;;;;;;;;;;;2088843;28;20372;-72
2023/08/22 01:02:25;;;;;;;;;;;;;;;;;;2088716;28;19947;-72
2023/08/22 01:03:46;;;;;;;;;;;;;;;;;;2086307;28;19917;-72
2023/08/22 01:05:07;;;;;;;;;;;;;;;;;;2080916;28;19909;-72
2023/08/22 01:06:28;;;;;;;;;;;;;;;;;;2092813;28;19912;-72
2023/08/22 01:07:48;;;;;;;;;;;;;;;;;;2091402;28;19908;-73
2023/08/22 01:09:10;;;;;;;;;;;;;;;;;;2086741;28;19908;-72
2023/08/22 01:10:32;;;;;;;;;;;;;;;;;;2090017;28;19916;-71
2023/08/22 01:11:53;;;;;;;;;;;;;;;;;;2076778;28;19916;-72
2023/08/22 01:13:13;;;;;;;;;;;;;;;;;;2081946;28;19913;-72
2023/08/22 01:14:34;;;;;;;;;;;;;;;;;;2092447;28;19913;-72
2023/08/22 01:15:55;;;;;;;;;;;;;;;;;;2085287;28;20330;-72
2023/08/22 01:17:15;;;;;;;;;;;;;;;;;;2078180;28;19921;-73
2023/08/22 01:18:36;;;;;;;;;;;;;;;;;;2077493;28;19924;-73
2023/08/22 01:19:57;;;;;;;;;;;;;;;;;;2084424;28;19916;-72
2023/08/22 01:21:18;;;;;;;;;;;;;;;;;;2083958;28;19936;-73
2023/08/22 01:22:38;;;;;;;;;;;;;;;;;;2080925;28;19917;-72
2023/08/22 01:23:59;;;;;;;;;;;;;;;;;;2082120;28;19966;-72
2023/08/22 01:25:20;;;;;;;;;;;;;;;;;;2075861;28;20000;-73
2023/08/22 01:26:40;;;;;;;;;;;;;;;;;;2078465;28;19924;-72
2023/08/22 01:28:01;;;;;;;;;;;;;;;;;;2084320;28;19916;-73
2023/08/22 01:29:22;;;;;;;;;;;;;;;;;;2085502;28;19920;-73
2023/08/22 01:30:42;;;;;;;;;;;;;;;;;;2087571;28;20284;-72
2023/08/22 01:32:05;;;;;;;;;;;;;;;;;;2083266;28;19961;-72
2023/08/22 01:33:26;;;;;;;;;;;;;;;;;;2085780;28;19917;-72
2023/08/22 01:34:46;;;;;;;;;;;;;;;;;;2086015;28;19921;-73
2023/08/22 01:36:07;;;;;;;;;;;;;;;;;;2082200;28;19924;-73
2023/08/22 01:37:28;;;;;;;;;;;;;;;;;;2104096;28;19920;-72
2023/08/22 01:38:49;;;;;;;;;;;;;;;;;;2098285;28;19916;-72
2023/08/22 01:40:10;;;;;;;;;;;;;;;;;;2084413;28;19955;-72
2023/08/22 01:41:30;;;;;;;;;;;;;;;;;;2086167;28;19908;-72
2023/08/22 01:42:51;;;;;;;;;;;;;;;;;;2089251;28;19917;-74
2023/08/22 01:44:12;;;;;;;;;;;;;;;;;;2082504;28;19945;-73
2023/08/22 01:45:33;;;;;;;;;;;;;;;;;;2089551;28;20346;-72
2023/08/22 01:46:53;;;;;;;;;;;;;;;;;;2090702;28;19927;-73
2023/08/22 01:48:14;;;;;;;;;;;;;;;;;;2091355;28;19920;-72
2023/08/22 01:49:37;;;;;;;;;;;;;;;;;;2091669;28;19978;-73
2023/08/22 01:50:58;;;;;;;;;;;;;;;;;;2092470;28;20326;-71
2023/08/22 01:52:19;;;;;;;;;;;;;;;;;;2089195;28;19913;-73
2023/08/22 01:53:40;;;;;;;;;;;;;;;;;;2092880;28;20007;-72
2023/08/22 01:55:00;;;;;;;;;;;;;;;;;;2085128;28;19912;-72
2023/08/22 01:56:21;;;;;;;;;;;;;;;;;;2091213;28;19958;-73
2023/08/22 01:57:42;;;;;;;;;;;;;;;;;;2094396;28;19924;-72
2023/08/22 01:59:03;;;;;;;;;;;;;;;;;;2091852;28;19912;-72
2023/08/22 02:00:23;;;;;;;;;;;;;;;;;;2090397;28;19924;-73
2023/08/22 02:01:44;;;;;;;;;;;;;;;;;;2087554;28;19920;-72
2023/08/22 02:03:05;;;;;;;;;;;;;;;;;;2094932;28;19920;-73
2023/08/22 02:04:25;;;;;;;;;;;;;;;;;;2087596;28;19917;-72
2023/08/22 02:05:46;;;;;;;;;;;;;;;;;;2094797;28;20371;-72
2023/08/22 02:07:07;;;;;;;;;;;;;;;;;;2095090;28;19917;-73
2023/08/22 02:08:27;;;;;;;;;;;;;;;;;;2101349;28;19946;-72
2023/08/22 02:09:48;;;;;;;;;;;;;;;;;;2099977;28;19916;-72
2023/08/22 02:11:09;;;;;;;;;;;;;;;;;;2097278;28;19908;-72
2023/08/22 02:12:29;;;;;;;;;;;;;;;;;;2096325;28;19924;-72
2023/08/22 02:13:50;;;;;;;;;;;;;;;;;;2102904;28;19909;-72
2023/08/22 02:15:11;;;;;;;;;;;;;;;;;;2094732;28;20391;-72
2023/08/22 02:16:31;;;;;;;;;;;;;;;;;;2096351;28;19913;-73
2023/08/22 02:17:52;;;;;;;;;;;;;;;;;;2084313;28;19921;-73
2023/08/22 02:19:13;;;;;;;;;;;;;;;;;;2084986;28;20318;-73
2023/08/22 02:20:34;;;;;;;;;;;;;;;;;;2086708;28;19913;-72
2023/08/22 02:21:54;;;;;;;;;;;;;;;;;;2092737;28;19928;-72
2023/08/22 02:23:15;;;;;;;;;;;;;;;;;;2084781;28;19920;-72
2023/08/22 02:24:36;;;;;;;;;;;;;;;;;;2083484;28;20218;-72
2023/08/22 02:25:56;;;;;;;;;;;;;;;;;;2091883;28;19913;-72
2023/08/22 02:27:17;;;;;;;;;;;;;;;;;;2088149;28;20388;-72
2023/08/22 02:28:38;;;;;;;;;;;;;;;;;;2088805;28;19921;-73
2023/08/22 02:29:58;;;;;;;;;;;;;;;;;;2086565;28;19917;-73
2023/08/22 02:31:19;;;;;;;;;;;;;;;;;;2082053;28;19960;-73
2023/08/22 02:32:40;;;;;;;;;;;;;;;;;;2091062;28;19924;-72
2023/08/22 02:34:01;;;;;;;;;;;;;;;;;;2083514;28;19943;-72
2023/08/22 02:35:21;;;;;;;;;;;;;;;;;;2085068;28;19920;-72
2023/08/22 02:36:42;;;;;;;;;;;;;;;;;;2083539;28;20300;-73
2023/08/22 02:38:03;;;;;;;;;;;;;;;;;;2084756;28;19993;-71
2023/08/22 02:39:24;;;;;;;;;;;;;;;;;;2077772;28;20001;-72
2023/08/22 02:40:44;;;;;;;;;;;;;;;;;;2079583;28;19909;-72
2023/08/22 02:42:05;;;;;;;;;;;;;;;;;;2085340;28;19928;-72
2023/08/22 02:43:26;;;;;;;;;;;;;;;;;;2084356;28;20253;-74
2023/08/22 02:44:46;;;;;;;;;;;;;;;;;;2079125;28;19917;-74
2023/08/22 02:46:07;;;;;;;;;;;;;;;;;;2079128;28;19963;-72
2023/08/22 02:47:28;;;;;;;;;;;;;;;;;;2080832;28;19922;-73
2023/08/22 02:48:48;;;;;;;;;;;;;;;;;;2082015;28;19917;-72
2023/08/22 02:50:09;;;;;;;;;;;;;;;;;;2086228;28;20008;-73
2023/08/22 02:51:30;;;;;;;;;;;;;;;;;;2082428;28;19913;-73
2023/08/22 02:52:51;;;;;;;;;;;;;;;;;;2082106;28;19964;-73
2023/08/22 02:54:11;;;;;;;;;;;;;;;;;;2084159;28;19921;-72
2023/08/22 02:55:32;;;;;;;;;;;;;;;;;;2082379;28;20352;-72
2023/08/22 02:56:53;;;;;;;;;;;;;;;;;;2092503;28;19927;-72
2023/08/22 02:58:13;;;;;;;;;;;;;;;;;;2096024;28;19923;-73
2023/08/22 02:59:34;;;;;;;;;;;;;;;;;;2091439;28;19913;-72
2023/08/22 03:00:55;;;;;;;;;;;;;;;;;;2093220;28;20530;-72
2023/08/22 03:02:15;;;;;;;;;;;;;;;;;;2092590;28;19921;-72
2023/08/22 03:03:36;;;;;;;;;;;;;;;;;;2096617;28;19916;-72
2023/08/22 03:04:57;;;;;;;;;;;;;;;;;;2088597;28;19912;-73
2023/08/22 03:06:18;;;;;;;;;;;;;;;;;;2087469;28;19913;-73
2023/08/22 03:07:38;;;;;;;;;;;;;;;;;;2087288;28;19921;-73
2023/08/22 03:08:59;;;;;;;;;;;;;;;;;;2094527;28;19912;-73
2023/08/22 03:10:20;;;;;;;;;;;;;;;;;;2090574;28;19921;-73
2023/08/22 03:11:41;;;;;;;;;;;;;;;;;;2098247;28;20033;-73
2023/08/22 03:13:01;;;;;;;;;;;;;;;;;;2088573;28;19920;-73
2023/08/22 03:14:22;;;;;;;;;;;;;;;;;;2096666;28;20037;-72
2023/08/22 03:15:43;;;;;;;;;;;;;;;;;;2099081;28;20280;-72
2023/08/22 03:17:03;;;;;;;;;;;;;;;;;;2094152;28;19920;-72
2023/08/22 03:18:24;;;;;;;;;;;;;;;;;;2091661;28;20261;-73
2023/08/22 03:19:45;;;;;;;;;;;;;;;;;;2093628;28;19921;-73
2023/08/22 03:21:06;;;;;;;;;;;;;;;;;;2093422;28;19916;-73
2023/08/22 03:22:26;;;;;;;;;;;;;;;;;;2101377;28;19912;-73
2023/08/22 03:23:47;;;;;;;;;;;;;;;;;;2092798;28;19920;-72
2023/08/22 03:25:08;;;;;;;;;;;;;;;;;;2094220;28;20041;-72
2023/08/22 03:26:28;;;;;;;;;;;;;;;;;;2098798;28;19924;-72
2023/08/22 03:27:49;;;;;;;;;;;;;;;;;;2091941;28;19920;-73
2023/08/22 03:29:10;;;;;;;;;;;;;;;;;;2092470;28;19912;-73
2023/08/22 03:30:31;;;;;;;;;;;;;;;;;;2093924;28;19943;-73
2023/08/22 03:31:51;;;;;;;;;;;;;;;;;;2091639;28;19982;-72
2023/08/22 03:33:12;;;;;;;;;;;;;;;;;;2091429;28;19916;-72
2023/08/22 03:34:33;;;;;;;;;;;;;;;;;;2102181;28;19912;-72
2023/08/22 03:35:53;;;;;;;;;;;;;;;;;;2092210;28;20327;-73
2023/08/22 03:37:14;;;;;;;;;;;;;;;;;;2092950;28;19924;-72
2023/08/22 03:38:35;;;;;;;;;;;;;;;;;;2091493;28;20010;-73
2023/08/22 03:39:55;;;;;;;;;;;;;;;;;;2098075;28;19917;-72
2023/08/22 03:41:16;;;;;;;;;;;;;;;;;;2094208;28;19923;-72
2023/08/22 03:42:37;;;;;;;;;;;;;;;;;;2102111;28;19916;-71
2023/08/22 03:43:57;;;;;;;;;;;;;;;;;;2099009;28;20598;-72
2023/08/22 03:45:18;;;;;;;;;;;;;;;;;;2097325;28;19908;-72
2023/08/22 03:46:39;;;;;;;;;;;;;;;;;;2098572;28;19909;-72
2023/08/22 03:48:04;;;;;;;;;;;;;;;;;;2075969;28;19925;-72
2023/08/22 03:49:24;;;;;;;;;;;;;;;;;;2081601;28;19920;-72
2023/08/22 03:50:45;;;;;;;;;;;;;;;;;;2082141;28;19921;-72
2023/08/22 03:52:06;;;;;;;;;;;;;;;;;;2080358;28;19917;-72
2023/08/22 03:53:26;;;;;;;;;;;;;;;;;;2069868;28;19921;-72
2023/08/22 03:54:47;;;;;;;;;;;;;;;;;;2086982;28;19923;-72
2023/08/22 03:56:08;;;;;;;;;;;;;;;;;;2081399;28;19914;-72
2023/08/22 03:57:29;;;;;;;;;;;;;;;;;;2078237;28;19926;-73
2023/08/22 03:58:49;;;;;;;;;;;;;;;;;;2074987;28;20388;-72
2023/08/22 04:00:10;;;;;;;;;;;;;;;;;;2076544;28;19913;-72
2023/08/22 04:01:31;;;;;;;;;;;;;;;;;;2075212;28;19945;-72
2023/08/22 04:02:53;;;;;;;;;;;;;;;;;;2079499;28;20221;-73
2023/08/22 04:04:14;;;;;;;;;;;;;;;;;;2075369;28;19925;-71
2023/08/22 04:05:35;;;;;;;;;;;;;;;;;;2071596;28;20253;-73
2023/08/22 04:06:56;;;;;;;;;;;;;;;;;;2075273;28;19975;-72
2023/08/22 04:08:16;;;;;;;;;;;;;;;;;;2075793;28;19928;-72
2023/08/22 04:09:37;;;;;;;;;;;;;;;;;;2079142;28;19921;-74
2023/08/22 04:10:58;;;;;;;;;;;;;;;;;;2080943;28;20462;-73
2023/08/22 04:12:19;;;;;;;;;;;;;;;;;;2077248;28;19910;-72
2023/08/22 04:13:39;;;;;;;;;;;;;;;;;;2081137;28;20416;-72
2023/08/22 04:15:00;;;;;;;;;;;;;;;;;;2077910;28;19913;-73
2023/08/22 04:16:21;;;;;;;;;;;;;;;;;;2081289;28;19909;-72
2023/08/22 04:17:41;;;;;;;;;;;;;;;;;;2079241;28;19936;-73
2023/08/22 04:19:02;;;;;;;;;;;;;;;;;;2085740;28;19925;-73
2023/08/22 04:20:23;;;;;;;;;;;;;;;;;;2085847;28;20281;-72
2023/08/22 04:21:43;;;;;;;;;;;;;;;;;;2085245;28;19936;-73
2023/08/22 04:23:04;;;;;;;;;;;;;;;;;;2084935;28;19932;-73
2023/08/22 04:24:25;;;;;;;;;;;;;;;;;;2083325;28;20258;-72
2023/08/22 04:25:46;;;;;;;;;;;;;;;;;;2089845;28;19917;-72
2023/08/22 04:27:06;;;;;;;;;;;;;;;;;;2089036;28;20144;-72
2023/08/22 04:28:27;;;;;;;;;;;;;;;;;;2075612;28;20377;-73
2023/08/22 04:29:48;;;;;;;;;;;;;;;;;;2076040;28;19975;-72
2023/08/22 04:31:08;;;;;;;;;;;;;;;;;;2075910;28;19913;-73
2023/08/22 04:32:29;;;;;;;;;;;;;;;;;;2059574;28;20306;-72
2023/08/22 04:33:50;;;;;;;;;;;;;;;;;;2078079;28;19913;-73
2023/08/22 04:35:10;;;;;;;;;;;;;;;;;;2078981;28;19913;-73
2023/08/22 04:36:31;;;;;;;;;;;;;;;;;;2073872;28;19917;-74
2023/08/22 04:37:52;;;;;;;;;;;;;;;;;;2076631;28;21267;-73
2023/08/22 04:39:12;;;;;;;;;;;;;;;;;;2082639;28;19917;-73
2023/08/22 04:40:34;;;;;;;;;;;;;;;;;;2087734;28;19913;-72
2023/08/22 04:41:54;;;;;;;;;;;;;;;;;;2083159;28;19914;-73
2023/08/22 04:43:15;;;;;;;;;;;;;;;;;;2087718;28;20532;-72
2023/08/22 04:44:36;;;;;;;;;;;;;;;;;;2097045;28;19950;-72
2023/08/22 04:45:56;;;;;;;;;;;;;;;;;;2088953;28;19916;-72
2023/08/22 04:47:17;;;;;;;;;;;;;;;;;;2080958;28;19917;-72
2023/08/22 04:48:38;;;;;;;;;;;;;;;;;;2073564;28;19928;-72
2023/08/22 04:49:58;;;;;;;;;;;;;;;;;;2079584;28;19917;-73
2023/08/22 04:51:19;;;;;;;;;;;;;;;;;;2083648;28;19916;-72
2023/08/22 04:52:40;;;;;;;;;;;;;;;;;;2083177;28;19975;-72
2023/08/22 04:54:00;;;;;;;;;;;;;;;;;;2080931;28;19947;-72
2023/08/22 04:55:22;;;;;;;;;;;;;;;;;;2083763;28;19917;-71
2023/08/22 04:56:42;;;;;;;;;;;;;;;;;;2081602;28;20288;-73
2023/08/22 04:58:03;;;;;;;;;;;;;;;;;;2085628;28;19925;-72
2023/08/22 04:59:24;;;;;;;;;;;;;;;;;;2081591;28;19921;-73
2023/08/22 05:00:44;;;;;;;;;;;;;;;;;;2088281;28;19986;-72
2023/08/22 05:02:05;;;;;;;;;;;;;;;;;;2092817;28;19913;-73
2023/08/22 05:03:26;;;;;;;;;;;;;;;;;;2090214;28;19936;-72
2023/08/22 05:04:47;;;;;;;;;;;;;;;;;;2087226;28;19916;-73
2023/08/22 05:06:07;;;;;;;;;;;;;;;;;;2089245;28;19931;-72
2023/08/22 05:07:28;;;;;;;;;;;;;;;;;;2087939;28;19925;-73
2023/08/22 05:08:49;;;;;;;;;;;;;;;;;;2095397;28;19921;-73
2023/08/22 05:10:10;;;;;;;;;;;;;;;;;;2096486;28;19920;-73
2023/08/22 05:11:30;;;;;;;;;;;;;;;;;;2093655;28;19912;-73
2023/08/22 05:12:51;;;;;;;;;;;;;;;;;;2092462;28;20258;-72
2023/08/22 05:14:12;;;;;;;;;;;;;;;;;;2097464;28;19908;-73
2023/08/22 05:15:32;;;;;;;;;;;;;;;;;;2095779;28;19912;-72
2023/08/22 05:16:53;;;;;;;;;;;;;;;;;;2096880;28;19931;-72
2023/08/22 05:18:14;;;;;;;;;;;;;;;;;;2091408;28;20361;-72
2023/08/22 05:19:34;;;;;;;;;;;;;;;;;;2086484;28;19913;-72
2023/08/22 05:20:55;;;;;;;;;;;;;;;;;;2087524;28;19913;-72
2023/08/22 05:22:16;;;;;;;;;;;;;;;;;;2089279;28;19921;-73
2023/08/22 05:23:37;;;;;;;;;;;;;;;;;;2088058;28;19916;-73
2023/08/22 05:24:57;;;;;;;;;;;;;;;;;;2085639;28;19913;-72
2023/08/22 05:26:18;;;;;;;;;;;;;;;;;;2088320;28;20395;-72
2023/08/22 05:27:39;;;;;;;;;;;;;;;;;;2077225;28;19913;-73
2023/08/22 05:28:59;;;;;;;;;;;;;;;;;;2090544;28;19924;-72
2023/08/22 05:30:20;;;;;;;;;;;;;;;;;;2090591;28;20415;-73
2023/08/22 05:31:41;;;;;;;;;;;;;;;;;;2097939;28;19917;-72
2023/08/22 05:33:02;;;;;;;;;;;;;;;;;;2092141;28;19920;-73
2023/08/22 05:34:23;;;;;;;;;;;;;;;;;;2091477;28;19958;-72
2023/08/22 05:35:44;;;;;;;;;;;;;;;;;;2091408;28;20284;-73
2023/08/22 05:37:04;;;;;;;;;;;;;;;;;;2086094;28;19913;-72
2023/08/22 05:38:25;;;;;;;;;;;;;;;;;;2090064;28;19924;-73
2023/08/22 05:39:46;;;;;;;;;;;;;;;;;;2097354;28;19920;-73
2023/08/22 05:41:06;;;;;;;;;;;;;;;;;;2091697;28;20272;-73
2023/08/22 05:42:27;;;;;;;;;;;;;;;;;;2100122;28;19920;-72
2023/08/22 05:43:48;;;;;;;;;;;;;;;;;;2096257;28;20353;-72
2023/08/22 05:45:09;;;;;;;;;;;;;;;;;;2093709;28;19966;-72
2023/08/22 05:46:29;;;;;;;;;;;;;;;;;;2098007;28;19912;-72
2023/08/22 05:47:50;;;;;;;;;;;;;;;;;;2097145;28;19909;-73
2023/08/22 05:49:11;;;;;;;;;;;;;;;;;;2094818;28;20214;-72
2023/08/22 05:50:31;;;;;;;;;;;;;;;;;;2093684;28;19913;-73
2023/08/22 05:51:52;;;;;;;;;;;;;;;;;;2090703;28;19913;-73
2023/08/22 05:53:13;;;;;;;;;;;;;;;;;;2096311;28;19924;-73
2023/08/22 05:54:33;;;;;;;;;;;;;;;;;;2090216;28;19913;-72
2023/08/22 05:55:55;;;;;;;;;;;;;;;;;;2085196;28;19998;-72
2023/08/22 05:57:16;;;;;;;;;;;;;;;;;;2096913;28;19916;-72
2023/08/22 05:58:36;;;;;;;;;;;;;;;;;;2088982;28;19928;-72
2023/08/22 05:59:57;;;;;;;;;;;;;;;;;;2082519;28;20437;-73
2023/08/22 06:01:18;;;;;;;;;;;;;;;;;;2098117;28;19942;-73
2023/08/22 06:02:38;;;;;;;;;;;;;;;;;;2093466;28;19913;-72
2023/08/22 06:03:59;;;;;;;;;;;;;;;;;;2095553;28;19939;-72
2023/08/22 06:05:20;;;;;;;;;;;;;;;;;;2087909;28;19928;-72
2023/08/22 06:06:41;;;;;;;;;;;;;;;;;;2086447;28;19913;-72
2023/08/22 06:08:01;;;;;;;;;;;;;;;;;;2091355;28;19924;-72
2023/08/22 06:09:22;;;;;;;;;;;;;;;;;;2089286;28;19917;-72
2023/08/22 06:10:43;;;;;;;;;;;;;;;;;;2103877;28;19916;-71
2023/08/22 06:12:03;;;;;;;;;;;;;;;;;;2091221;28;19931;-72
2023/08/22 06:13:24;;;;;;;;;;;;;;;;;;2094768;28;19955;-72
2023/08/22 06:14:45;;;;;;;;;;;;;;;;;;2103250;28;19908;-73
2023/08/22 06:16:05;;;;;;;;;;;;;;;;;;2091990;28;19936;-73
2023/08/22 06:17:26;;;;;;;;;;;;;;;;;;2096871;28;19912;-72
2023/08/22 06:18:47;;;;;;;;;;;;;;;;;;2099783;28;19921;-72
2023/08/22 06:20:07;;;;;;;;;;;;;;;;;;2089996;28;19909;-72
2023/08/22 06:21:28;;;;;;;;;;;;;;;;;;2093831;28;19978;-73
2023/08/22 06:22:49;;;;;;;;;;;;;;;;;;2088396;28;20385;-71
2023/08/22 06:24:10;;;;;;;;;;;;;;;;;;2103148;28;19916;-72
2023/08/22 06:25:30;;;;;;;;;;;;;;;;;;2092930;28;19913;-72
2023/08/22 06:26:51;;;;;;;;;;;;;;;;;;2089581;28;20356;-72
2023/08/22 06:28:12;;;;;;;;;;;;;;;;;;2086665;28;19975;-73
2023/08/22 06:29:33;;;;;;;;;;;;;;;;;;2081654;28;19913;-73
2023/08/22 06:30:53;;;;;;;;;;;;;;;;;;2087612;28;19939;-73
2023/08/22 06:32:14;;;;;;;;;;;;;;;;;;2098537;28;19908;-73
2023/08/22 06:33:35;;;;;;;;;;;;;;;;;;2096049;28;19921;-73
2023/08/22 06:34:55;;;;;;;;;;;;;;;;;;2093185;28;19913;-73
2023/08/22 06:36:16;;;;;;;;;;;;;;;;;;2092307;28;20402;-73
2023/08/22 06:37:37;;;;;;;;;;;;;;;;;;2092260;28;19925;-73
2023/08/22 06:38:57;;;;;;;;;;;;;;;;;;2085365;28;20445;-73
2023/08/22 06:40:18;;;;;;;;;;;;;;;;;;2086685;28;19912;-73
2023/08/22 06:41:39;;;;;;;;;;;;;;;;;;2092404;28;19971;-73
2023/08/22 06:42:59;;;;;;;;;;;;;;;;;;2088310;28;19967;-73
2023/08/22 06:44:20;;;;;;;;;;;;;;;;;;2085170;28;20344;-70
2023/08/22 06:45:41;;;;;;;;;;;;;;;;;;2085026;28;19913;-69
2023/08/22 06:47:02;;;;;;;;;;;;;;;;;;2087454;28;19913;-70
2023/08/22 06:48:22;;;;;;;;;;;;;;;;;;2096191;28;20368;-72
2023/08/22 06:49:43;;;;;;;;;;;;;;;;;;2090092;28;19909;-73
2023/08/22 06:51:04;;;;;;;;;;;;;;;;;;2095869;28;19920;-72
2023/08/22 06:52:24;;;;;;;;;;;;;;;;;;2102089;28;19919;-73
2023/08/22 06:53:45;;;;;;;;;;;;;;;;;;2100383;28;20288;-73
2023/08/22 06:55:06;;;;;;;;;;;;;;;;;;2098149;28;19912;-73
2023/08/22 06:56:27;;;;;;;;;;;;;;;;;;2078389;28;20326;-73
2023/08/22 06:57:47;;;;;;;;;;;;;;;;;;2096321;28;19917;-73
2023/08/22 06:59:09;;;;;;;;;;;;;;;;;;2096318;28;20455;-73
2023/08/22 07:00:30;;;;;;;;;;;;;;;;;;2092815;28;20398;-74
2023/08/22 07:01:50;;;;;;;;;;;;;;;;;;2096936;28;19909;-71
2023/08/22 07:03:11;;;;;;;;;;;;;;;;;;2093220;28;19920;-72
2023/08/22 07:04:32;;;;;;;;;;;;;;;;;;2098224;28;20312;-72
2023/08/22 07:05:53;;;;;;;;;;;;;;;;;;2099469;28;19909;-72
2023/08/22 07:07:14;;;;;;;;;;;;;;;;;;2098240;28;19908;-72
2023/08/22 07:08:34;;;;;;;;;;;;;;;;;;2100088;28;19943;-72
2023/08/22 07:09:55;;;;;;;;;;;;;;;;;;2090562;28;19909;-72
2023/08/22 07:11:16;;;;;;;;;;;;;;;;;;2096175;28;19908;-72
2023/08/22 07:12:36;;;;;;;;;;;;;;;;;;2098523;28;19912;-71
2023/08/22 07:13:57;;;;;;;;;;;;;;;;;;2086293;28;20284;-72
2023/08/22 07:15:18;;;;;;;;;;;;;;;;;;2100066;28;19912;-72
2023/08/22 07:16:39;;;;;;;;;;;;;;;;;;2098204;28;20283;-71
2023/08/22 07:17:59;;;;;;;;;;;;;;;;;;2098072;28;19912;-72
2023/08/22 07:19:20;;;;;;;;;;;;;;;;;;2089232;28;20324;-74
2023/08/22 07:20:42;;;;;;;;;;;;;;;;;;2094623;28;19913;-72
2023/08/22 07:22:03;;;;;;;;;;;;;;;;;;2089220;28;19958;-73
2023/08/22 07:23:23;;;;;;;;;;;;;;;;;;2085555;28;19912;-72
2023/08/22 07:24:44;;;;;;;;;;;;;;;;;;2089186;28;20292;-75
2023/08/22 07:26:05;;;;;;;;;;;;;;;;;;2095478;28;19965;-72
2023/08/22 07:27:26;;;;;;;;;;;;;;;;;;2098620;28;20367;-72
2023/08/22 07:28:46;;;;;;;;;;;;;;;;;;2092866;28;19920;-72
2023/08/22 07:30:07;;;;;;;;;;;;;;;;;;2096916;28;19920;-73
2023/08/22 07:31:28;;;;;;;;;;;;;;;;;;2082772;28;19909;-72
2023/08/22 07:32:48;;;;;;;;;;;;;;;;;;2092538;28;19966;-72
2023/08/22 07:34:09;;;;;;;;;;;;;;;;;;2096428;28;20312;-72
2023/08/22 07:35:31;;;;;;;;;;;;;;;;;;2086545;28;19913;-73
2023/08/22 07:36:52;;;;;;;;;;;;;;;;;;2096502;28;19935;-74
2023/08/22 07:38:12;;;;;;;;;;;;;;;;;;2095628;28;19917;-73
2023/08/22 07:39:33;;;;;;;;;;;;;;;;;;2088753;28;19931;-73
2023/08/22 07:40:54;;;;;;;;;;;;;;;;;;2091718;28;19908;-73
2023/08/22 07:42:16;;;;;;;;;;;;;;;;;;2106448;28;20260;-73
2023/08/22 07:43:36;;;;;;;;;;;;;;;;;;2088955;28;19924;-73
2023/08/22 07:44:57;;;;;;;;;;;;;;;;;;2091901;28;19986;-73
2023/08/22 07:46:19;;;;;;;;;;;;;;;;;;2089997;28;19933;-73
2023/08/22 07:47:40;;;;;;;;;;;;;;;;;;2086289;28;19917;-73
2023/08/22 07:49:00;;;;;;;;;;;;;;;;;;2095196;28;19938;-73
2023/08/22 07:50:21;;;;;;;;;;;;;;;;;;2096996;28;20264;-73
2023/08/22 07:51:42;;;;;;;;;;;;;;;;;;2097882;28;19909;-73
2023/08/22 07:53:04;;;;;;;;;;;;;;;;;;2095880;28;19908;-73
2023/08/22 07:54:25;;;;;;;;;;;;;;;;;;2098650;28;19915;-73
2023/08/22 07:55:45;;;;;;;;;;;;;;;;;;2090333;28;19912;-73
2023/08/22 07:57:06;;;;;;;;;;;;;;;;;;2090168;28;19913;-72
2023/08/22 07:58:27;;;;;;;;;;;;;;;;;;2102459;28;20307;-73
2023/08/22 07:59:48;;;;;;;;;;;;;;;;;;2100039;28;19924;-73
2023/08/22 08:01:09;;;;;;;;;;;;;;;;;;2098374;28;19916;-73
2023/08/22 08:02:29;;;;;;;;;;;;;;;;;;2088799;28;19916;-74
2023/08/22 08:03:50;;;;;;;;;;;;;;;;;;2095072;28;20371;-73
2023/08/22 08:05:12;;;;;;;;;;;;;;;;;;2104049;28;19913;-73
2023/08/22 08:06:33;;;;;;;;;;;;;;;;;;2091100;28;19931;-73
2023/08/22 08:07:54;;;;;;;;;;;;;;;;;;2095332;28;19970;-73
2023/08/22 08:09:15;;;;;;;;;;;;;;;;;;2096042;28;20284;-73
2023/08/22 08:10:35;;;;;;;;;;;;;;;;;;2088807;28;19912;-73
2023/08/22 08:11:56;;;;;;;;;;;;;;;;;;2087235;28;20303;-73
2023/08/22 08:13:17;;;;;;;;;;;;;;;;;;2087199;28;19917;-73
2023/08/22 08:14:37;;;;;;;;;;;;;;;;;;2092067;28;20304;-73
2023/08/22 08:15:58;;;;;;;;;;;;;;;;;;2089776;28;19909;-74
2023/08/22 08:17:19;;;;;;;;;;;;;;;;;;2085220;28;19959;-73
2023/08/22 08:18:40;;;;;;;;;;;;;;;;;;2098075;28;19908;-74
2023/08/22 08:20:02;;;;;;;;;;;;;;;;;;2086432;28;19947;-73
2023/08/22 08:21:23;;;;;;;;;;;;;;;;;;2091557;28;19908;-73
2023/08/22 08:22:44;;;;;;;;;;;;;;;;;;2089054;28;19913;-73
2023/08/22 08:24:04;;;;;;;;;;;;;;;;;;2094572;28;19920;-74
2023/08/22 08:25:25;;;;;;;;;;;;;;;;;;2096425;28;20137;-74
2023/08/22 08:26:46;;;;;;;;;;;;;;;;;;2101378;28;19908;-73
2023/08/22 08:28:07;;;;;;;;;;;;;;;;;;2101585;28;19916;-74
2023/08/22 08:29:27;;;;;;;;;;;;;;;;;;2091540;28;19916;-73
2023/08/22 08:30:48;;;;;;;;;;;;;;;;;;2084306;28;19924;-73
2023/08/22 08:32:09;;;;;;;;;;;;;;;;;;2089220;28;19931;-73
2023/08/22 08:33:30;;;;;;;;;;;;;;;;;;2097594;28;20284;-73
2023/08/22 08:34:51;;;;;;;;;;;;;;;;;;2096981;28;19908;-73
2023/08/22 08:36:12;;;;;;;;;;;;;;;;;;2097809;28;19909;-74
2023/08/22 08:37:32;;;;;;;;;;;;;;;;;;2090212;28;19909;-73
2023/08/22 08:38:53;;;;;;;;;;;;;;;;;;2091492;28;19912;-73
2023/08/22 08:40:14;;;;;;;;;;;;;;;;;;2089938;28;19961;-73
2023/08/22 08:41:35;;;;;;;;;;;;;;;;;;2089818;28;19908;-73
2023/08/22 08:42:55;;;;;;;;;;;;;;;;;;2080466;28;19909;-74
2023/08/22 08:44:16;;;;;;;;;;;;;;;;;;2085008;28;19913;-73
2023/08/22 08:45:37;;;;;;;;;;;;;;;;;;2088655;28;19917;-74
2023/08/22 08:46:57;;;;;;;;;;;;;;;;;;2088911;28;19912;-73
2023/08/22 08:48:18;;;;;;;;;;;;;;;;;;2089756;28;19909;-74
2023/08/22 08:49:39;;;;;;;;;;;;;;;;;;2094329;28;19982;-73
2023/08/22 08:51:00;;;;;;;;;;;;;;;;;;2098004;28;20406;-74
2023/08/22 08:52:20;;;;;;;;;;;;;;;;;;2089590;28;19909;-74
2023/08/22 08:53:41;;;;;;;;;;;;;;;;;;2090451;28;19920;-73
2023/08/22 08:55:03;;;;;;;;;;;;;;;;;;2096552;28;19919;-74
2023/08/22 08:56:24;;;;;;;;;;;;;;;;;;2097837;28;19916;-74
2023/08/22 08:57:46;;;;;;;;;;;;;;;;;;2097839;28;19923;-74
2023/08/22 08:59:07;;;;;;;;;;;;;;;;;;2087411;28;19917;-74
2023/08/22 09:00:28;;;;;;;;;;;;;;;;;;2092683;28;20372;-75
2023/08/22 09:01:50;;;;;;;;;;;;;;;;;;2097323;28;19909;-73
2023/08/22 09:03:10;;;;;;;;;;;;;;;;;;2095053;28;19912;-74
2023/08/22 09:04:31;;;;;;;;;;;;;;;;;;2102830;28;19917;-74
2023/08/22 09:05:52;;;;;;;;;;;;;;;;;;2089253;28;19916;-73
2023/08/22 09:07:12;;;;;;;;;;;;;;;;;;2094403;28;19912;-72
2023/08/22 09:08:33;;;;;;;;;;;;;;;;;;2094731;28;20309;-72
2023/08/22 09:09:55;;;;;;;;;;;;;;;;;;2085704;28;20021;-71
2023/08/22 09:11:15;;;;;;;;;;;;;;;;;;2093462;28;20368;-72